Time;durP1;ratioP1;P1;durP2;ratioP2;P2;SDS_P1;SDS_P2;PMS_P1;PMS_P2;Temp;Humidity;BMP_temperature;BMP_pressure;BME280_temperature;BME280_humidity;BME280_pressure;Samples;Min_cycle;Max_cycle;Signal;HPM_P1;HPM_P2
2023/09/04 00:01:52;;;;;;;5.88;2.60;;;;;;;24.47;45.96;95285.72;6052341;28;108720;-65
2023/09/04 00:04:56;;;;;;;3.28;2.60;;;;;;;24.42;46.52;95293.13;6061433;28;108919;-65
2023/09/04 00:07:59;;;;;;;4.90;2.90;;;;;;;24.45;47.06;95293.28;6049893;28;108832;-65
2023/09/04 00:11:02;;;;;;;6.33;3.00;;;;;;;24.42;48.11;95287.78;6060558;28;109221;-65
2023/09/04 00:14:05;;;;;;;4.20;2.93;;;;;;;24.44;48.85;95283.69;6060179;28;108955;-65
2023/09/04 00:17:11;;;;;;;4.17;2.70;;;;;;;24.47;48.58;95272.34;6054693;28;108699;-66
2023/09/04 00:20:14;;;;;;;5.13;2.95;;;;;;;24.30;49.44;95267.00;6053345;28;109040;-65
2023/09/04 00:23:17;;;;;;;3.83;2.70;;;;;;;24.09;50.20;95250.78;6057914;28;110019;-65
2023/09/04 00:26:20;;;;;;;4.43;2.90;;;;;;;24.14;49.98;95247.94;6060849;28;108668;-65
2023/09/04 00:29:23;;;;;;;4.75;2.90;;;;;;;23.97;50.68;95249.78;6050195;28;108771;-65
2023/09/04 00:32:28;;;;;;;6.43;2.72;;;;;;;24.21;49.86;95247.50;6060256;28;108653;-65
2023/09/04 00:35:31;;;;;;;5.13;2.90;;;;;;;24.15;49.57;95235.34;6058663;28;109009;-65
2023/09/04 00:38:34;;;;;;;4.10;2.80;;;;;;;23.86;49.99;95223.38;6060391;28;109224;-65
2023/09/04 00:41:37;;;;;;;4.10;2.60;;;;;;;24.00;49.66;95225.91;6050201;28;108691;-65
2023/09/04 00:44:43;;;;;;;4.10;2.70;;;;;;;24.22;49.94;95218.88;6059954;28;109068;-65
2023/09/04 00:47:48;;;;;;;3.80;2.60;;;;;;;24.31;49.42;95198.22;6060991;28;108638;-65
2023/09/04 00:50:51;;;;;;;4.60;2.40;;;;;;;24.17;49.58;95166.31;6064443;28;109037;-65
2023/09/04 00:53:54;;;;;;;4.47;2.78;;;;;;;23.97;50.40;95167.69;6054394;28;111808;-63
2023/09/04 00:57:01;;;;;;;4.20;2.80;;;;;;;23.78;49.61;95165.34;6064361;28;108831;-63
2023/09/04 01:00:12;;;;;;;3.92;2.80;;;;;;;24.06;49.36;95171.19;6064394;28;108669;-63
2023/09/04 01:03:18;;;;;;;3.55;2.72;;;;;;;24.24;49.17;95176.53;6062125;28;109117;-64
2023/09/04 01:06:21;;;;;;;3.15;2.65;;;;;;;24.27;49.32;95168.66;6063447;28;109167;-63
2023/09/04 01:09:26;;;;;;;3.83;2.55;;;;;;;24.33;49.32;95167.38;6062368;28;108847;-64
2023/09/04 01:12:38;;;;;;;4.45;2.63;;;;;;;24.25;49.83;95159.41;6063856;28;108586;-63
2023/09/04 01:15:41;;;;;;;4.82;2.65;;;;;;;24.06;49.91;95146.34;6045447;28;109573;-64
2023/09/04 01:18:46;;;;;;;3.60;2.50;;;;;;;24.02;50.11;95154.19;6063408;28;109365;-63
2023/09/04 01:21:51;;;;;;;3.78;2.67;;;;;;;24.20;49.28;95152.31;6064517;28;109553;-64
2023/09/04 01:24:54;;;;;;;3.55;2.40;;;;;;;24.28;49.69;95142.72;6059393;28;108825;-64
2023/09/04 01:28:04;;;;;;;3.77;2.70;;;;;;;24.18;49.61;95139.25;6052901;28;109412;-63
2023/09/04 01:31:14;;;;;;;5.37;2.90;;;;;;;24.17;49.44;95142.25;6063073;28;108544;-64
2023/09/04 01:34:24;;;;;;;3.75;2.20;;;;;;;24.25;49.03;95146.81;6063452;28;108736;-62
2023/09/04 01:37:29;;;;;;;3.03;2.47;;;;;;;24.11;49.25;95138.94;6053607;28;109125;-62
2023/09/04 01:40:32;;;;;;;2.78;2.30;;;;;;;24.14;49.64;95142.88;6063162;28;108958;-66
2023/09/04 01:43:35;;;;;;;3.90;2.40;;;;;;;24.12;49.49;95134.38;6062610;28;108989;-64
2023/09/04 01:46:39;;;;;;;3.97;2.33;;;;;;;24.17;49.23;95124.31;6062772;28;109110;-62
2023/09/04 01:49:42;;;;;;;4.40;2.60;;;;;;;24.22;49.16;95127.94;6051663;28;108963;-62
2023/09/04 01:52:47;;;;;;;3.30;2.60;;;;;;;24.27;49.11;95125.09;6060817;28;109133;-62
2023/09/04 01:55:50;;;;;;;4.18;2.60;;;;;;;24.23;49.24;95126.84;6051263;28;109043;-63
2023/09/04 01:58:53;;;;;;;3.28;2.60;;;;;;;24.30;48.80;95119.88;6062484;28;108760;-62
2023/09/04 02:01:56;;;;;;;4.97;2.72;;;;;;;24.32;48.79;95133.72;6053004;28;109747;-62
2023/09/04 02:04:59;;;;;;;4.00;2.20;;;;;;;24.33;49.02;95134.50;6062211;28;109475;-65
2023/09/04 02:08:04;;;;;;;4.63;2.60;;;;;;;24.27;48.72;95130.44;6060308;28;110394;-63
2023/09/04 02:11:07;;;;;;;4.00;2.70;;;;;;;24.26;48.75;95142.25;6057625;28;108783;-66
2023/09/04 02:14:10;;;;;;;3.67;2.50;;;;;;;24.24;48.44;95139.88;6056617;28;108785;-65
2023/09/04 02:17:13;;;;;;;2.90;2.60;;;;;;;24.26;48.57;95147.59;6060835;28;108856;-64
2023/09/04 02:20:16;;;;;;;2.50;2.30;;;;;;;24.21;48.47;95148.56;6057680;28;108805;-64
2023/09/04 02:23:21;;;;;;;3.10;2.50;;;;;;;24.09;48.46;95141.16;6051141;28;110478;-66
2023/09/04 02:26:24;;;;;;;3.47;2.60;;;;;;;24.16;48.54;95140.66;6062310;28;108584;-65
2023/09/04 02:29:29;;;;;;;2.80;2.42;;;;;;;24.07;48.41;95137.22;6062726;28;108878;-65
2023/09/04 02:32:32;;;;;;;2.70;2.50;;;;;;;24.07;48.45;95132.66;6062621;28;108971;-66
2023/09/04 02:35:35;;;;;;;2.70;2.50;;;;;;;24.06;48.48;95133.00;6051188;28;110173;-65
2023/09/04 02:38:41;;;;;;;4.15;2.90;;;;;;;24.07;48.77;95129.22;6063070;28;108946;-65
2023/09/04 02:41:44;;;;;;;3.08;2.72;;;;;;;24.06;48.98;95114.28;6062599;28;108911;-65
2023/09/04 02:44:47;;;;;;;2.90;2.70;;;;;;;24.08;48.84;95118.19;6060823;28;108633;-65
2023/09/04 02:47:50;;;;;;;3.00;2.70;;;;;;;24.12;48.83;95115.66;6054954;28;109003;-65
2023/09/04 02:50:58;;;;;;;2.90;2.60;;;;;;;24.08;49.08;95118.19;6054858;28;108742;-65
2023/09/04 02:54:02;;;;;;;4.03;2.80;;;;;;;24.05;48.87;95118.06;6061119;28;108835;-65
2023/09/04 02:57:05;;;;;;;4.90;4.40;;;;;;;24.07;48.94;95121.97;6050483;28;109188;-66
2023/09/04 03:00:10;;;;;;;10.63;9.83;;;;;;;24.12;49.14;95116.47;6060411;28;108967;-65
2023/09/04 03:03:13;;;;;;;6.63;6.03;;;;;;;24.07;48.98;95110.50;6074861;28;108966;-64
2023/09/04 03:06:16;;;;;;;4.05;3.65;;;;;;;23.83;49.55;95102.91;6060942;28;110624;-64
2023/09/04 03:09:20;;;;;;;4.03;3.63;;;;;;;23.81;49.64;95102.44;6050556;28;108791;-65
2023/09/04 03:12:24;;;;;;;4.03;3.57;;;;;;;23.93;49.41;95099.16;6061363;28;108628;-64
2023/09/04 03:15:27;;;;;;;3.50;3.20;;;;;;;23.99;49.19;95097.88;6059319;28;109253;-67
2023/09/04 03:18:30;;;;;;;3.60;3.30;;;;;;;24.07;49.17;95102.47;6054934;28;108831;-66
2023/09/04 03:21:33;;;;;;;4.40;3.40;;;;;;;24.05;49.55;95102.00;6049722;28;108923;-67
2023/09/04 03:24:38;;;;;;;4.10;3.70;;;;;;;24.02;49.70;95098.06;6061891;28;109174;-66
2023/09/04 03:27:41;;;;;;;4.40;4.00;;;;;;;24.02;49.59;95107.97;6060643;28;108978;-67
2023/09/04 03:30:44;;;;;;;4.60;4.20;;;;;;;24.03;49.54;95104.22;6055308;28;109085;-67
2023/09/04 03:33:47;;;;;;;6.07;5.57;;;;;;;24.15;49.45;95105.13;6051645;28;110028;-67
2023/09/04 03:36:50;;;;;;;5.90;5.40;;;;;;;24.24;49.06;95110.47;6061764;28;108902;-68
2023/09/04 03:39:54;;;;;;;6.00;5.50;;;;;;;24.19;49.08;95114.09;6060513;28;109201;-66
2023/09/04 03:42:58;;;;;;;4.53;4.10;;;;;;;24.12;48.34;95107.66;6050391;28;108858;-67
2023/09/04 03:46:01;;;;;;;4.07;3.55;;;;;;;24.09;48.13;95097.59;6051276;28;109139;-68
2023/09/04 03:49:04;;;;;;;3.83;3.30;;;;;;;24.01;47.18;95107.19;6060620;28;109508;-68
2023/09/04 03:52:07;;;;;;;3.40;3.10;;;;;;;24.07;46.84;95110.50;6060083;28;109268;-66
2023/09/04 03:55:12;;;;;;;3.20;2.90;;;;;;;24.06;46.54;95103.59;6050505;28;108880;-66
2023/09/04 03:58:15;;;;;;;3.00;2.60;;;;;;;24.01;46.26;95117.88;6060704;28;108854;-68
2023/09/04 04:01:18;;;;;;;3.75;2.85;;;;;;;23.95;46.25;95115.66;6060491;28;108781;-66
2023/09/04 04:04:22;;;;;;;4.25;2.90;;;;;;;23.94;46.21;95112.19;6058318;28;108694;-65
2023/09/04 04:07:25;;;;;;;6.45;3.00;;;;;;;23.98;46.68;95113.13;6052275;28;108756;-67
2023/09/04 04:10:29;;;;;;;3.88;2.67;;;;;;;24.08;45.87;95118.19;6061203;28;108595;-69
2023/09/04 04:13:32;;;;;;;2.80;2.60;;;;;;;24.12;45.46;95110.31;6051884;28;108578;-67
2023/09/04 04:16:36;;;;;;;3.33;2.70;;;;;;;24.08;45.56;95112.84;6049702;28;109141;-66
2023/09/04 04:19:40;;;;;;;5.63;3.00;;;;;;;24.11;45.77;95120.22;6060809;28;108861;-67
2023/09/04 04:22:43;;;;;;;5.95;2.90;;;;;;;24.04;45.70;95116.47;6060303;28;108833;-66
2023/09/04 04:25:48;;;;;;;3.83;3.22;;;;;;;23.87;45.50;95112.69;6065317;28;108938;-68
2023/09/04 04:28:51;;;;;;;5.33;3.03;;;;;;;23.70;46.08;95115.34;6039638;28;108764;-67
2023/09/04 04:31:54;;;;;;;3.10;2.90;;;;;;;23.69;46.16;95110.31;6064981;28;108725;-67
2023/09/04 04:34:58;;;;;;;3.30;3.00;;;;;;;23.62;46.32;95108.09;6065037;28;109001;-67
2023/09/04 04:38:01;;;;;;;3.30;3.00;;;;;;;23.64;46.36;95103.25;6064725;28;108996;-68
2023/09/04 04:41:05;;;;;;;3.37;3.10;;;;;;;23.64;46.92;95102.44;6054227;28;109112;-67
2023/09/04 04:44:08;;;;;;;3.95;3.08;;;;;;;23.65;46.17;95104.81;6064771;28;108822;-67
2023/09/04 04:47:11;;;;;;;3.00;2.80;;;;;;;23.64;46.41;95102.44;6064566;28;108755;-66
2023/09/04 04:50:15;;;;;;;3.63;2.80;;;;;;;23.59;45.99;95095.38;6059752;28;108864;-66
2023/09/04 04:53:18;;;;;;;2.80;2.60;;;;;;;23.50;45.77;95102.59;6058842;28;108921;-67
2023/09/04 04:56:23;;;;;;;3.45;2.70;;;;;;;23.43;45.90;95110.28;6064335;28;108763;-67
2023/09/04 04:59:26;;;;;;;2.60;2.35;;;;;;;23.46;45.28;95109.66;6064411;28;108652;-67
2023/09/04 05:02:29;;;;;;;3.03;2.72;;;;;;;23.38;45.65;95108.56;6053988;28;108866;-69
2023/09/04 05:05:34;;;;;;;3.03;2.67;;;;;;;23.43;45.52;95112.97;6064465;28;108825;-66
2023/09/04 05:08:37;;;;;;;2.80;2.50;;;;;;;23.54;45.22;95109.69;6064228;28;108863;-68
2023/09/04 05:11:42;;;;;;;4.03;2.90;;;;;;;23.42;45.25;95114.06;6064716;28;108586;-67
2023/09/04 05:14:45;;;;;;;3.53;2.70;;;;;;;23.41;45.53;95099.94;6038410;28;108775;-68
2023/09/04 05:17:48;;;;;;;3.00;2.50;;;;;;;23.43;44.90;95096.94;6064045;28;108940;-67
2023/09/04 05:20:51;;;;;;;2.70;2.40;;;;;;;23.35;44.76;95098.50;6064005;28;108638;-68
2023/09/04 05:23:55;;;;;;;2.37;2.00;;;;;;;23.31;45.06;95092.22;6061962;28;112089;-66
2023/09/04 05:26:59;;;;;;;2.00;1.80;;;;;;;23.27;44.91;95086.69;6057033;28;108780;-68
2023/09/04 05:30:02;;;;;;;3.30;2.17;;;;;;;23.26;45.02;95097.66;6064032;28;108830;-68
2023/09/04 05:33:06;;;;;;;2.30;2.10;;;;;;;23.20;44.86;95089.03;6056493;28;108633;-68
2023/09/04 05:36:10;;;;;;;3.20;2.03;;;;;;;23.16;45.29;95092.63;6053712;28;109700;-62
2023/09/04 05:39:14;;;;;;;2.60;2.10;;;;;;;23.19;45.06;95079.44;6063178;28;108885;-63
2023/09/04 05:42:18;;;;;;;2.38;2.10;;;;;;;23.15;45.04;95091.84;6063782;28;108710;-62
2023/09/04 05:45:22;;;;;;;2.70;2.40;;;;;;;23.12;44.92;95081.78;6063115;28;108989;-68
2023/09/04 05:48:25;;;;;;;3.08;2.38;;;;;;;23.12;44.71;95079.09;6053605;28;109673;-63
2023/09/04 05:51:28;;;;;;;2.70;2.50;;;;;;;23.03;44.42;95078.31;6063521;28;109448;-62
2023/09/04 05:54:31;;;;;;;2.75;2.45;;;;;;;23.00;44.93;95071.69;6063264;28;108903;-62
2023/09/04 05:57:36;;;;;;;2.50;2.30;;;;;;;23.06;44.21;95071.56;6063384;28;108598;-62
2023/09/04 06:00:40;;;;;;;2.90;2.70;;;;;;;23.01;44.36;95072.47;6052353;28;109334;-62
2023/09/04 06:03:45;;;;;;;2.80;2.50;;;;;;;22.96;44.59;95068.09;6063534;28;108701;-62
2023/09/04 06:06:48;;;;;;;2.90;2.60;;;;;;;23.00;44.84;95062.91;6062931;28;109152;-62
2023/09/04 06:09:51;;;;;;;3.03;2.63;;;;;;;22.96;44.54;95072.63;6058289;28;108982;-62
2023/09/04 06:12:56;;;;;;;2.60;2.40;;;;;;;22.98;44.21;95078.44;6057449;28;109155;-71
2023/09/04 06:15:59;;;;;;;3.25;2.80;;;;;;;22.99;44.50;95072.00;6062852;28;108942;-62
2023/09/04 06:19:02;;;;;;;3.30;2.80;;;;;;;23.09;44.10;95090.41;6063010;28;109216;-62
2023/09/04 06:22:05;;;;;;;4.53;2.80;;;;;;;23.15;43.97;95091.84;6052219;28;109011;-63
2023/09/04 06:25:09;;;;;;;3.20;2.90;;;;;;;23.00;44.29;95092.25;6062930;28;109038;-64
2023/09/04 06:28:15;;;;;;;3.05;2.85;;;;;;;22.94;44.23;95091.63;6062895;28;108579;-64
2023/09/04 06:31:18;;;;;;;3.20;2.90;;;;;;;22.89;44.42;95091.00;6063380;28;109204;-63
2023/09/04 06:34:21;;;;;;;2.97;2.60;;;;;;;22.83;44.11;95094.88;6053244;28;109848;-63
2023/09/04 06:37:25;;;;;;;3.30;3.00;;;;;;;22.88;43.97;95090.22;6062839;28;108828;-62
2023/09/04 06:40:28;;;;;;;3.50;3.20;;;;;;;22.89;44.44;95091.00;6062837;28;108787;-62
2023/09/04 06:43:33;;;;;;;3.25;3.00;;;;;;;22.92;44.13;95093.03;6060017;28;109038;-67
2023/09/04 06:46:36;;;;;;;3.40;3.10;;;;;;;22.89;44.09;95099.78;6054926;28;108978;-65
2023/09/04 06:49:42;;;;;;;3.40;3.10;;;;;;;22.94;44.01;95102.31;6062657;28;108631;-64
2023/09/04 06:52:45;;;;;;;3.20;2.90;;;;;;;23.01;44.11;95101.84;6061883;28;108824;-64
2023/09/04 06:55:49;;;;;;;4.43;3.20;;;;;;;23.34;44.08;95101.47;6053033;28;108872;-64
2023/09/04 06:58:53;;;;;;;3.90;2.90;;;;;;;23.58;43.48;95104.50;6062042;28;109158;-65
2023/09/04 07:01:56;;;;;;;3.38;3.08;;;;;;;23.71;43.03;95111.59;6062301;28;109068;-70
2023/09/04 07:05:00;;;;;;;3.10;2.80;;;;;;;23.85;42.92;95114.88;6062022;28;108941;-64
2023/09/04 07:08:04;;;;;;;3.00;2.80;;;;;;;23.91;42.92;95123.53;6053057;28;110080;-64
2023/09/04 07:11:08;;;;;;;3.10;2.90;;;;;;;23.96;42.68;95115.34;6062469;28;108914;-64
2023/09/04 07:14:12;;;;;;;3.40;3.10;;;;;;;23.97;42.69;95113.44;6062250;28;108640;-64
2023/09/04 07:17:16;;;;;;;3.60;3.20;;;;;;;24.06;42.71;95108.94;6062245;28;108862;-65
2023/09/04 07:20:19;;;;;;;3.73;3.43;;;;;;;24.11;41.99;95111.44;6050642;28;108951;-64
2023/09/04 07:23:22;;;;;;;3.65;3.25;;;;;;;24.13;42.44;95114.56;6061935;28;108914;-64
2023/09/04 07:26:32;;;;;;;4.60;3.22;;;;;;;24.18;42.25;95109.03;6061994;28;108930;-65
2023/09/04 07:29:36;;;;;;;3.53;3.23;;;;;;;24.09;42.37;95119.78;6053664;28;108752;-66
2023/09/04 07:32:40;;;;;;;3.33;3.03;;;;;;;24.09;42.35;95119.78;6059494;28;108900;-65
2023/09/04 07:35:43;;;;;;;3.60;3.30;;;;;;;24.09;42.18;95122.44;6061878;28;109407;-64
2023/09/04 07:38:47;;;;;;;3.17;2.97;;;;;;;24.03;42.53;95121.03;6061402;28;109285;-63
2023/09/04 07:41:50;;;;;;;3.80;3.40;;;;;;;23.98;42.40;95126.50;6051497;28;109004;-64
2023/09/04 07:44:55;;;;;;;3.60;3.30;;;;;;;23.98;42.52;95123.03;6061013;28;109064;-64
2023/09/04 07:47:58;;;;;;;3.80;3.50;;;;;;;23.94;42.48;95116.75;6061322;28;109049;-65
2023/09/04 07:51:03;;;;;;;4.35;3.60;;;;;;;23.92;42.60;95117.09;6061146;28;108932;-65
2023/09/04 07:54:06;;;;;;;3.90;3.50;;;;;;;23.86;42.16;95124.47;6051500;28;110465;-65
2023/09/04 07:57:10;;;;;;;4.20;3.80;;;;;;;23.92;42.27;95124.31;6060743;28;108649;-61
2023/09/04 08:00:21;;;;;;;6.43;3.55;;;;;;;24.01;42.18;95125.09;6061453;28;108558;-61
2023/09/04 08:03:24;;;;;;;6.65;3.60;;;;;;;23.91;42.35;95110.16;6055084;28;108860;-62
2023/09/04 08:06:28;;;;;;;4.00;3.60;;;;;;;24.02;42.35;95119.44;6056284;28;108762;-62
2023/09/04 08:09:31;;;;;;;4.53;4.13;;;;;;;24.01;42.20;95111.75;6060686;28;108689;-60
2023/09/04 08:12:34;;;;;;;5.95;4.10;;;;;;;24.08;42.56;95120.09;6060238;28;108771;-60
2023/09/04 08:15:39;;;;;;;5.00;3.58;;;;;;;24.00;42.45;95116.31;6050155;28;108800;-60
2023/09/04 08:18:42;;;;;;;6.20;3.60;;;;;;;24.01;42.74;95123.22;6061114;28;109004;-60
2023/09/04 08:21:45;;;;;;;4.27;3.63;;;;;;;23.97;43.11;95119.59;6060943;28;110147;-60
2023/09/04 08:24:50;;;;;;;3.90;3.60;;;;;;;23.93;42.93;95121.31;6061112;28;109206;-61
2023/09/04 08:27:53;;;;;;;4.15;3.83;;;;;;;23.92;43.11;95129.66;6050570;28;108771;-60
2023/09/04 08:30:58;;;;;;;3.90;3.60;;;;;;;23.92;43.00;95125.09;6061292;28;108926;-61
2023/09/04 08:34:03;;;;;;;4.10;3.70;;;;;;;23.94;43.21;95130.91;6060527;28;108897;-60
2023/09/04 08:37:06;;;;;;;4.23;3.80;;;;;;;23.92;42.99;95121.63;6058509;28;109166;-63
2023/09/04 08:40:10;;;;;;;4.20;3.90;;;;;;;23.85;43.58;95130.13;6053408;28;108844;-67
2023/09/04 08:43:15;;;;;;;4.45;4.05;;;;;;;23.86;43.46;95129.03;6060535;28;109112;-61
2023/09/04 08:46:21;;;;;;;5.30;4.90;;;;;;;23.90;43.07;95127.31;6060350;28;109195;-61
2023/09/04 08:49:26;;;;;;;5.77;4.43;;;;;;;23.95;43.28;95121.78;6049711;28;109179;-60
2023/09/04 08:52:29;;;;;;;4.78;4.30;;;;;;;23.94;43.32;95127.47;6060376;28;108747;-61
2023/09/04 08:55:33;;;;;;;4.70;4.30;;;;;;;23.94;43.12;95116.75;6060243;28;108570;-61
2023/09/04 08:58:37;;;;;;;4.97;4.57;;;;;;;23.95;42.88;95121.78;6060388;28;108889;-61
2023/09/04 09:01:43;;;;;;;4.45;4.05;;;;;;;23.96;42.74;95130.59;6049070;28;108771;-61
2023/09/04 09:04:47;;;;;;;4.40;4.05;;;;;;;23.93;42.97;95136.56;6060262;28;108668;-61
2023/09/04 09:07:51;;;;;;;6.07;4.53;;;;;;;23.85;42.54;95128.22;6060002;28;108960;-61
2023/09/04 09:10:54;;;;;;;4.70;4.30;;;;;;;23.89;42.82;95137.22;6063826;28;109035;-61
2023/09/04 09:13:57;;;;;;;5.20;4.70;;;;;;;23.90;43.03;95133.44;6054138;28;109033;-61
2023/09/04 09:17:05;;;;;;;6.00;4.82;;;;;;;23.90;42.82;95133.44;6064682;28;108597;-60
2023/09/04 09:20:10;;;;;;;4.85;4.35;;;;;;;23.93;42.87;95136.56;6064329;28;109298;-60
2023/09/04 09:23:16;;;;;;;4.50;4.10;;;;;;;23.94;42.87;95132.81;6057153;28;108925;-61
2023/09/04 09:26:19;;;;;;;4.60;4.30;;;;;;;23.95;42.92;95142.38;6061716;28;108844;-66
2023/09/04 09:29:22;;;;;;;4.63;4.23;;;;;;;23.93;42.92;95140.03;6064070;28;108940;-60
2023/09/04 09:32:28;;;;;;;5.07;4.67;;;;;;;23.90;42.98;95140.66;6063591;28;108810;-60
2023/09/04 09:35:32;;;;;;;4.90;4.50;;;;;;;23.88;43.05;95140.19;6053357;28;109165;-61
2023/09/04 09:38:44;;;;;;;5.00;4.60;;;;;;;23.87;42.87;95143.97;6049311;28;109167;-60
2023/09/04 09:41:48;;;;;;;5.80;4.68;;;;;;;23.86;43.17;95148.53;6063462;28;108705;-61
2023/09/04 09:44:52;;;;;;;5.50;4.43;;;;;;;23.89;43.22;95141.78;6063613;28;108996;-59
2023/09/04 09:47:56;;;;;;;5.00;4.60;;;;;;;23.87;43.34;95146.66;6052440;28;109438;-60
2023/09/04 09:51:00;;;;;;;4.97;4.50;;;;;;;23.84;43.50;95150.72;6063480;28;109138;-61
2023/09/04 09:54:05;;;;;;;4.50;4.10;;;;;;;23.85;43.66;95144.25;6063122;28;108932;-60
2023/09/04 09:57:10;;;;;;;5.28;4.78;;;;;;;23.86;43.17;95142.41;6057296;28;108772;-60
2023/09/04 10:00:14;;;;;;;4.88;4.50;;;;;;;23.86;43.57;95145.84;6057648;28;108782;-61
2023/09/04 10:03:19;;;;;;;5.40;4.90;;;;;;;23.82;44.18;95142.22;6063372;28;108955;-61
2023/09/04 10:06:25;;;;;;;5.00;4.50;;;;;;;23.83;44.07;95143.00;6062847;28;108632;-61
2023/09/04 10:09:31;;;;;;;5.27;4.87;;;;;;;23.78;44.70;95141.28;6052395;28;108839;-61
2023/09/04 10:12:36;;;;;;;5.10;4.60;;;;;;;23.77;45.05;95138.94;6063069;28;108816;-61
2023/09/04 10:15:43;;;;;;;5.40;4.90;;;;;;;23.77;45.13;95142.38;6062973;28;109045;-61
2023/09/04 10:18:53;;;;;;;5.53;5.13;;;;;;;23.75;45.27;95138.47;6063750;28;108660;-61
2023/09/04 10:22:03;;;;;;;6.35;5.75;;;;;;;23.69;45.47;95143.19;6051267;28;109605;-61
2023/09/04 10:25:13;;;;;;;7.00;6.30;;;;;;;23.68;46.19;95133.56;6063011;28;108639;-61
2023/09/04 10:28:20;;;;;;;7.35;6.75;;;;;;;23.68;46.36;95138.13;6062533;28;108844;-62
2023/09/04 10:31:40;;;;;;;8.10;7.30;;;;;;;23.74;46.07;95134.22;6053492;28;109735;-61
2023/09/04 10:34:44;;;;;;;7.10;6.40;;;;;;;23.69;46.24;95140.50;6062459;28;108910;-61
2023/09/04 10:37:49;;;;;;;7.10;6.53;;;;;;;23.69;46.45;95143.19;6062462;28;108645;-60
2023/09/04 10:40:53;;;;;;;7.70;7.00;;;;;;;23.69;46.94;95150.38;6061024;28;108992;-61
2023/09/04 10:43:56;;;;;;;8.20;7.50;;;;;;;23.73;47.18;95149.47;6051993;28;112459;-61
2023/09/04 10:47:00;;;;;;;7.20;6.60;;;;;;;23.74;46.97;95155.59;6061854;28;108832;-61
2023/09/04 10:50:28;;;;;;;8.30;7.60;;;;;;;23.74;47.23;95153.72;6062460;28;108934;-61
2023/09/04 10:53:31;;;;;;;7.57;6.97;;;;;;;23.75;47.63;95151.81;6059794;28;108662;-62
2023/09/04 10:56:55;;;;;;;7.43;6.80;;;;;;;23.76;48.06;95158.72;6056749;28;108919;-60
2023/09/04 11:00:02;;;;;;;6.85;6.28;;;;;;;23.71;48.01;95157.00;6062028;28;108829;-61
2023/09/04 11:03:16;;;;;;;7.13;6.43;;;;;;;23.78;48.37;95165.34;6062423;28;108992;-60
2023/09/04 11:06:20;;;;;;;5.90;5.40;;;;;;;23.77;48.43;95162.97;6045528;28;108904;-61
2023/09/04 11:09:24;;;;;;;6.10;5.50;;;;;;;23.71;48.74;95156.22;6061995;28;108727;-60
2023/09/04 11:12:27;;;;;;;6.40;5.80;;;;;;;23.73;48.85;95162.81;6062120;28;108579;-61
2023/09/04 11:15:33;;;;;;;6.40;5.88;;;;;;;23.74;48.84;95161.72;6062166;28;108824;-60
2023/09/04 11:18:38;;;;;;;5.45;5.00;;;;;;;23.73;48.92;95162.81;6051108;28;108905;-60
2023/09/04 11:21:44;;;;;;;5.10;4.60;;;;;;;23.73;48.84;95160.16;6062217;28;108730;-60
2023/09/04 11:24:49;;;;;;;4.80;4.40;;;;;;;23.70;48.85;95155.44;6061773;28;108772;-60
2023/09/04 11:27:52;;;;;;;4.70;4.20;;;;;;;23.74;49.10;95158.25;6057239;28;108734;-66
2023/09/04 11:30:57;;;;;;;4.53;4.13;;;;;;;23.72;49.09;95161.25;6055836;28;108770;-64
2023/09/04 11:34:01;;;;;;;4.47;4.07;;;;;;;23.75;48.74;95160.63;6061671;28;108761;-66
2023/09/04 11:37:06;;;;;;;4.13;3.73;;;;;;;23.72;48.80;95161.25;6061656;28;109196;-64
2023/09/04 11:40:10;;;;;;;4.28;3.88;;;;;;;23.73;49.03;95162.81;6051359;28;110496;-66
2023/09/04 11:43:14;;;;;;;4.40;4.00;;;;;;;23.72;49.13;95158.56;6046009;28;108823;-66
2023/09/04 11:46:17;;;;;;;4.65;3.70;;;;;;;23.70;49.18;95160.78;6060919;28;108769;-65
2023/09/04 11:49:21;;;;;;;4.20;3.80;;;;;;;23.73;48.86;95159.38;6061807;28;108730;-65
2023/09/04 11:52:28;;;;;;;4.53;4.10;;;;;;;23.69;49.73;95153.06;6052622;28;109445;-64
2023/09/04 11:55:31;;;;;;;4.70;3.50;;;;;;;23.67;49.46;95160.59;6061345;28;108818;-65
2023/09/04 11:58:36;;;;;;;3.85;3.55;;;;;;;23.65;49.47;95152.91;6061257;28;108787;-64
2023/09/04 12:01:39;;;;;;;5.10;3.97;;;;;;;23.65;49.54;95155.56;6059085;28;108849;-66
2023/09/04 12:04:42;;;;;;;5.30;4.83;;;;;;;23.64;49.73;95155.88;6053801;28;109014;-65
2023/09/04 12:07:48;;;;;;;6.60;6.00;;;;;;;23.66;49.60;95149.13;6061421;28;108890;-65
2023/09/04 12:10:51;;;;;;;5.20;4.70;;;;;;;23.61;49.59;95138.59;6061429;28;109485;-65
2023/09/04 12:13:55;;;;;;;4.82;4.38;;;;;;;23.63;49.98;95146.31;6051542;28;108906;-64
2023/09/04 12:16:59;;;;;;;5.30;4.47;;;;;;;23.60;49.93;95142.38;6060418;28;109158;-64
2023/09/04 12:20:05;;;;;;;5.00;4.60;;;;;;;23.58;50.13;95144.56;6061266;28;109030;-64
2023/09/04 12:23:10;;;;;;;5.35;4.80;;;;;;;23.57;49.98;95146.47;6061079;28;108626;-65
2023/09/04 12:26:15;;;;;;;6.20;5.60;;;;;;;23.57;50.42;95140.31;6051028;28;109631;-64
2023/09/04 12:29:20;;;;;;;5.88;5.10;;;;;;;23.60;49.94;95142.38;6060888;28;108575;-65
2023/09/04 12:32:23;;;;;;;5.40;4.90;;;;;;;23.54;50.14;95140.97;6060849;28;109047;-66
2023/09/04 12:35:26;;;;;;;5.20;4.80;;;;;;;23.53;49.88;95142.84;6060656;28;108912;-67
2023/09/04 12:38:30;;;;;;;4.90;4.50;;;;;;;23.50;49.96;95140.00;6050782;28;108872;-65
2023/09/04 12:41:34;;;;;;;6.28;5.78;;;;;;;23.51;50.49;95130.88;6060378;28;109023;-64
2023/09/04 12:44:37;;;;;;;6.63;6.13;;;;;;;23.51;50.03;95133.53;6062600;28;108594;-64
2023/09/04 12:47:41;;;;;;;6.60;5.90;;;;;;;23.55;50.69;95129.19;6053644;28;108690;-64
2023/09/04 12:50:45;;;;;;;6.22;5.72;;;;;;;23.59;50.26;95128.22;6064068;28;108931;-65
2023/09/04 12:53:49;;;;;;;5.00;4.50;;;;;;;23.56;49.88;95126.19;6064710;28;108635;-64
2023/09/04 12:56:53;;;;;;;5.68;5.18;;;;;;;23.53;49.75;95128.69;6064111;28;109027;-65
2023/09/04 12:59:56;;;;;;;5.10;4.60;;;;;;;23.52;50.05;95132.44;6054580;28;108907;-64
2023/09/04 13:02:59;;;;;;;5.40;4.90;;;;;;;23.53;49.93;95134.03;6064328;28;109011;-65
2023/09/04 13:06:02;;;;;;;4.80;4.40;;;;;;;23.52;49.87;95133.25;6064910;28;108757;-65
2023/09/04 13:09:07;;;;;;;4.97;4.47;;;;;;;23.56;50.00;95134.19;6058717;28;108709;-65
2023/09/04 13:12:10;;;;;;;5.40;4.90;;;;;;;23.48;50.50;95140.31;6042310;28;109554;-65
2023/09/04 13:15:15;;;;;;;5.97;5.47;;;;;;;23.53;50.15;95134.03;6064078;28;108661;-65
2023/09/04 13:18:18;;;;;;;5.32;4.82;;;;;;;23.52;50.53;95137.78;6064316;28;108567;-64
2023/09/04 13:21:21;;;;;;;4.38;3.97;;;;;;;23.52;50.15;95132.44;6059465;28;110005;-65
2023/09/04 13:24:26;;;;;;;6.05;5.22;;;;;;;23.49;50.27;95125.84;6059118;28;108821;-64
2023/09/04 13:27:29;;;;;;;5.93;5.43;;;;;;;23.45;50.43;95129.47;6064205;28;109292;-65
2023/09/04 13:30:32;;;;;;;6.73;6.13;;;;;;;23.46;50.34;95133.69;6063808;28;108716;-65
2023/09/04 13:33:37;;;;;;;7.20;6.60;;;;;;;23.49;49.95;95131.19;6053034;28;109098;-65
2023/09/04 13:36:40;;;;;;;5.70;5.20;;;;;;;23.46;50.04;95126.47;6063653;28;109007;-65
2023/09/04 13:39:45;;;;;;;5.63;5.13;;;;;;;23.45;50.69;95124.91;6063947;28;108617;-64
2023/09/04 13:42:48;;;;;;;5.40;4.90;;;;;;;23.46;50.56;95134.50;6064005;28;108749;-64
2023/09/04 13:45:51;;;;;;;5.50;4.60;;;;;;;23.44;50.47;95130.56;6053701;28;109785;-64
2023/09/04 13:48:54;;;;;;;5.18;4.70;;;;;;;23.41;50.73;95128.53;6063902;28;108950;-68
2023/09/04 13:51:57;;;;;;;4.28;3.88;;;;;;;23.41;50.52;95126.63;6063465;28;108841;-69
2023/09/04 13:55:02;;;;;;;3.80;3.50;;;;;;;23.40;50.36;95116.25;6063162;28;108756;-68
2023/09/04 13:58:05;;;;;;;3.78;3.40;;;;;;;23.37;50.09;95115.00;6054964;28;109348;-68
2023/09/04 14:01:13;;;;;;;3.92;3.63;;;;;;;23.36;50.45;95123.34;6063583;28;108701;-68
2023/09/04 14:04:17;;;;;;;4.18;3.78;;;;;;;23.37;50.76;95125.69;6063223;28;108600;-69
2023/09/04 14:07:20;;;;;;;4.43;4.03;;;;;;;23.35;50.22;95119.84;6053271;28;108893;-68
2023/09/04 14:10:24;;;;;;;3.63;3.33;;;;;;;23.32;50.65;95117.03;6062877;28;109257;-69
2023/09/04 14:13:28;;;;;;;3.85;3.45;;;;;;;23.29;50.92;95111.22;6062959;28;108942;-69
2023/09/04 14:16:31;;;;;;;4.50;3.57;;;;;;;23.29;51.00;95115.75;6063113;28;108591;-68